Terminal Aerodrome Forecast
Issued by NWS

Home | Current Version | Previous Version | Text Only | Print | Product List | Glossary On
Versions: 1 2 3 4 5 6 7 8 9 10 11 12
258
FTUS44 KSJT 241131
TAFBBD
TAF
KBBD 241131Z 2412/2512 21010KT P6SM VCSH BKN025
     FM241300 23011KT P6SM SCT025 BKN090
     FM241600 24015G25KT P6SM SKC
     FM250000 30008KT P6SM SKC
      AMD NOT SKED=

USA.gov is the U.S. government's official web portal to all federal, state and local government web resources and services.